sensor_id;sensor_type;location;lat;lon;timestamp;pressure;altitude;pressure_sealevel;temperature;humidity
34482;BME280;20720;48.886;9.388;2022-08-11T00:00:42;98820.41;;;18.94;94.64
34482;BME280;20720;48.886;9.388;2022-08-11T00:03:09;98826.50;;;18.78;94.78
34482;BME280;20720;48.886;9.388;2022-08-11T00:05:45;98820.53;;;18.88;94.65
34482;BME280;20720;48.886;9.388;2022-08-11T00:08:11;98819.59;;;18.94;94.26
34482;BME280;20720;48.886;9.388;2022-08-11T00:10:44;98825.72;;;18.94;93.23
34482;BME280;20720;48.886;9.388;2022-08-11T00:13:15;98815.47;;;18.86;93.88
34482;BME280;20720;48.886;9.388;2022-08-11T00:15:41;98819.28;;;18.90;94.45
34482;BME280;20720;48.886;9.388;2022-08-11T00:18:08;98811.41;;;18.84;93.52
34482;BME280;20720;48.886;9.388;2022-08-11T00:20:34;98814.31;;;18.82;95.33
34482;BME280;20720;48.886;9.388;2022-08-11T00:23:01;98820.72;;;18.81;94.49
34482;BME280;20720;48.886;9.388;2022-08-11T00:25:30;98805.69;;;18.75;95.96
34482;BME280;20720;48.886;9.388;2022-08-11T00:28:01;98816.16;;;18.65;94.44
34482;BME280;20720;48.886;9.388;2022-08-11T00:30:26;98809.09;;;18.59;97.36
34482;BME280;20720;48.886;9.388;2022-08-11T00:33:02;98816.53;;;18.57;95.00
34482;BME280;20720;48.886;9.388;2022-08-11T00:35:28;98822.66;;;18.57;97.52
34482;BME280;20720;48.886;9.388;2022-08-11T00:37:55;98817.03;;;18.70;95.04
34482;BME280;20720;48.886;9.388;2022-08-11T00:40:28;98824.69;;;18.67;95.41
34482;BME280;20720;48.886;9.388;2022-08-11T00:43:03;98816.63;;;18.62;96.22
34482;BME280;20720;48.886;9.388;2022-08-11T00:45:38;98829.50;;;18.53;97.87
34482;BME280;20720;48.886;9.388;2022-08-11T00:50:38;98830.25;;;18.26;99.62
34482;BME280;20720;48.886;9.388;2022-08-11T01:11:20;98811.97;;;17.90;100.00
34482;BME280;20720;48.886;9.388;2022-08-11T01:14:03;98816.00;;;17.92;100.00
34482;BME280;20720;48.886;9.388;2022-08-11T01:16:37;98814.97;;;17.81;100.00
34482;BME280;20720;48.886;9.388;2022-08-11T01:19:20;98819.25;;;17.71;100.00
34482;BME280;20720;48.886;9.388;2022-08-11T01:22:15;98814.28;;;17.51;100.00
34482;BME280;20720;48.886;9.388;2022-08-11T01:30:17;98812.19;;;17.42;100.00
34482;BME280;20720;48.886;9.388;2022-08-11T01:35:46;98811.25;;;17.36;100.00
34482;BME280;20720;48.886;9.388;2022-08-11T01:46:30;98821.53;;;17.21;100.00
34482;BME280;20720;48.886;9.388;2022-08-11T01:49:13;98797.16;;;17.24;100.00
34482;BME280;20720;48.886;9.388;2022-08-11T01:59:38;98794.84;;;17.39;100.00
34482;BME280;20720;48.886;9.388;2022-08-11T02:10:32;98792.94;;;17.69;100.00
34482;BME280;20720;48.886;9.388;2022-08-11T02:16:04;98807.78;;;17.94;100.00
34482;BME280;20720;48.886;9.388;2022-08-11T02:18:34;98797.84;;;17.77;100.00
34482;BME280;20720;48.886;9.388;2022-08-11T02:21:22;98802.03;;;17.73;100.00
34482;BME280;20720;48.886;9.388;2022-08-11T02:24:10;98799.59;;;17.37;100.00
34482;BME280;20720;48.886;9.388;2022-08-11T02:26:39;98787.47;;;17.18;100.00
34482;BME280;20720;48.886;9.388;2022-08-11T02:29:22;98782.84;;;17.25;100.00
34482;BME280;20720;48.886;9.388;2022-08-11T02:32:05;98777.03;;;16.93;100.00
34482;BME280;20720;48.886;9.388;2022-08-11T02:37:31;98777.44;;;17.20;100.00
34482;BME280;20720;48.886;9.388;2022-08-11T02:40:09;98782.47;;;16.99;100.00
34482;BME280;20720;48.886;9.388;2022-08-11T02:42:40;98776.47;;;16.91;100.00
34482;BME280;20720;48.886;9.388;2022-08-11T02:47:34;98753.06;;;16.29;100.00
34482;BME280;20720;48.886;9.388;2022-08-11T02:52:43;98766.25;;;16.77;100.00
34482;BME280;20720;48.886;9.388;2022-08-11T02:57:40;98762.63;;;16.60;100.00
34482;BME280;20720;48.886;9.388;2022-08-11T03:00:07;98775.50;;;16.74;100.00
34482;BME280;20720;48.886;9.388;2022-08-11T03:02:42;98768.69;;;16.67;100.00
34482;BME280;20720;48.886;9.388;2022-08-11T03:05:14;98777.81;;;16.71;100.00
34482;BME280;20720;48.886;9.388;2022-08-11T03:10:31;98776.59;;;16.55;100.00
34482;BME280;20720;48.886;9.388;2022-08-11T03:13:03;98775.06;;;16.48;100.00
34482;BME280;20720;48.886;9.388;2022-08-11T03:15:54;98772.19;;;16.49;100.00
34482;BME280;20720;48.886;9.388;2022-08-11T03:19:07;98778.66;;;16.53;100.00
34482;BME280;20720;48.886;9.388;2022-08-11T03:24:20;98773.16;;;16.37;100.00
34482;BME280;20720;48.886;9.388;2022-08-11T03:26:54;98778.47;;;16.37;100.00
34482;BME280;20720;48.886;9.388;2022-08-11T03:29:29;98770.34;;;16.32;100.00
34482;BME280;20720;48.886;9.388;2022-08-11T03:32:00;98764.03;;;16.33;100.00
34482;BME280;20720;48.886;9.388;2022-08-11T03:34:26;98744.97;;;15.76;100.00
34482;BME280;20720;48.886;9.388;2022-08-11T03:40:10;98756.31;;;16.13;100.00
34482;BME280;20720;48.886;9.388;2022-08-11T03:42:41;98757.84;;;16.21;100.00
34482;BME280;20720;48.886;9.388;2022-08-11T03:47:51;98764.78;;;16.22;100.00
34482;BME280;20720;48.886;9.388;2022-08-11T03:50:26;98759.16;;;16.30;100.00
34482;BME280;20720;48.886;9.388;2022-08-11T03:59:13;98773.06;;;16.43;100.00
34482;BME280;20720;48.886;9.388;2022-08-11T04:14:24;98756.97;;;16.27;100.00
34482;BME280;20720;48.886;9.388;2022-08-11T04:22:48;98755.38;;;16.08;100.00
34482;BME280;20720;48.886;9.388;2022-08-11T04:25:28;98760.28;;;16.22;100.00
34482;BME280;20720;48.886;9.388;2022-08-11T04:31:04;98753.19;;;16.05;100.00
34482;BME280;20720;48.886;9.388;2022-08-11T04:44:53;98764.34;;;16.25;100.00
34482;BME280;20720;48.886;9.388;2022-08-11T04:50:25;98779.63;;;16.70;100.00
34482;BME280;20720;48.886;9.388;2022-08-11T04:53:18;98782.75;;;16.79;100.00
34482;BME280;20720;48.886;9.388;2022-08-11T04:56:07;98791.13;;;17.06;100.00
34482;BME280;20720;48.886;9.388;2022-08-11T05:09:42;98801.56;;;17.88;100.00
34482;BME280;20720;48.886;9.388;2022-08-11T05:14:38;98800.25;;;18.02;100.00
34482;BME280;20720;48.886;9.388;2022-08-11T05:17:26;98801.53;;;18.39;100.00
34482;BME280;20720;48.886;9.388;2022-08-11T05:20:13;98804.31;;;18.44;100.00
34482;BME280;20720;48.886;9.388;2022-08-11T05:23:05;98811.47;;;18.72;100.00
34482;BME280;20720;48.886;9.388;2022-08-11T05:25:49;98806.84;;;18.96;100.00
34482;BME280;20720;48.886;9.388;2022-08-11T05:28:45;98815.09;;;19.27;100.00
34482;BME280;20720;48.886;9.388;2022-08-11T05:31:34;98816.53;;;19.51;99.12
34482;BME280;20720;48.886;9.388;2022-08-11T05:34:20;98819.06;;;19.80;97.01
34482;BME280;20720;48.886;9.388;2022-08-11T05:37:06;98816.84;;;20.10;94.21
34482;BME280;20720;48.886;9.388;2022-08-11T05:39:38;98820.06;;;20.33;93.42
34482;BME280;20720;48.886;9.388;2022-08-11T05:42:24;98823.34;;;20.62;88.79
34482;BME280;20720;48.886;9.388;2022-08-11T05:45:10;98830.06;;;20.91;86.57
34482;BME280;20720;48.886;9.388;2022-08-11T05:47:55;98836.31;;;21.02;85.58
34482;BME280;20720;48.886;9.388;2022-08-11T05:50:39;98844.06;;;21.35;83.42
34482;BME280;20720;48.886;9.388;2022-08-11T05:53:23;98835.44;;;21.60;81.52
34482;BME280;20720;48.886;9.388;2022-08-11T05:56:07;98835.03;;;21.78;79.49
34482;BME280;20720;48.886;9.388;2022-08-11T05:58:46;98836.25;;;21.97;79.82
34482;BME280;20720;48.886;9.388;2022-08-11T06:01:13;98838.66;;;21.93;79.24
34482;BME280;20720;48.886;9.388;2022-08-11T06:03:45;98836.91;;;22.24;76.29
34482;BME280;20720;48.886;9.388;2022-08-11T06:06:33;98841.31;;;22.50;73.51
34482;BME280;20720;48.886;9.388;2022-08-11T06:09:00;98844.34;;;22.79;72.34
34482;BME280;20720;48.886;9.388;2022-08-11T06:11:25;98843.06;;;23.21;70.75
34482;BME280;20720;48.886;9.388;2022-08-11T06:13:52;98839.84;;;23.09;70.16
34482;BME280;20720;48.886;9.388;2022-08-11T06:16:22;98836.91;;;23.61;68.70
34482;BME280;20720;48.886;9.388;2022-08-11T06:18:49;98839.22;;;24.18;66.71
34482;BME280;20720;48.886;9.388;2022-08-11T06:21:14;98838.56;;;24.46;65.42
34482;BME280;20720;48.886;9.388;2022-08-11T06:23:41;98846.09;;;24.44;65.91
34482;BME280;20720;48.886;9.388;2022-08-11T06:26:07;98845.50;;;24.57;65.81
34482;BME280;20720;48.886;9.388;2022-08-11T06:28:34;98841.22;;;25.39;61.45
34482;BME280;20720;48.886;9.388;2022-08-11T06:31:01;98842.06;;;24.95;62.46
34482;BME280;20720;48.886;9.388;2022-08-11T06:33:38;98842.81;;;25.97;59.12
34482;BME280;20720;48.886;9.388;2022-08-11T06:41:22;98832.16;;;26.76;54.87
34482;BME280;20720;48.886;9.388;2022-08-11T06:46:24;98836.16;;;26.60;52.63
34482;BME280;20720;48.886;9.388;2022-08-11T06:48:51;98845.53;;;25.68;55.96
34482;BME280;20720;48.886;9.388;2022-08-11T06:51:17;98839.63;;;26.42;54.77
34482;BME280;20720;48.886;9.388;2022-08-11T06:53:43;98835.63;;;27.01;52.29
34482;BME280;20720;48.886;9.388;2022-08-11T06:56:09;98842.47;;;27.76;51.00
34482;BME280;20720;48.886;9.388;2022-08-11T06:58:53;98841.28;;;27.18;52.75
34482;BME280;20720;48.886;9.388;2022-08-11T07:01:56;98836.91;;;26.84;52.93
34482;BME280;20720;48.886;9.388;2022-08-11T07:04:35;98830.19;;;27.38;50.89
34482;BME280;20720;48.886;9.388;2022-08-11T07:12:41;98835.13;;;26.56;53.97
34482;BME280;20720;48.886;9.388;2022-08-11T07:15:34;98839.31;;;27.23;52.39
34482;BME280;20720;48.886;9.388;2022-08-11T07:18:05;98839.88;;;27.84;49.84
34482;BME280;20720;48.886;9.388;2022-08-11T07:20:51;98844.94;;;28.05;50.06
34482;BME280;20720;48.886;9.388;2022-08-11T07:23:38;98837.50;;;28.37;48.16
34482;BME280;20720;48.886;9.388;2022-08-11T07:26:23;98822.41;;;28.63;47.77
34482;BME280;20720;48.886;9.388;2022-08-11T07:29:08;98824.53;;;28.75;47.70
34482;BME280;20720;48.886;9.388;2022-08-11T07:31:40;98828.28;;;28.65;48.27
34482;BME280;20720;48.886;9.388;2022-08-11T07:36:43;98830.25;;;28.73;48.05
34482;BME280;20720;48.886;9.388;2022-08-11T07:39:13;98820.56;;;28.45;47.89
34482;BME280;20720;48.886;9.388;2022-08-11T07:41:39;98824.81;;;29.23;45.38
34482;BME280;20720;48.886;9.388;2022-08-11T07:44:05;98820.41;;;27.42;50.28
34482;BME280;20720;48.886;9.388;2022-08-11T07:46:40;98815.81;;;27.56;48.88
34482;BME280;20720;48.886;9.388;2022-08-11T07:49:25;98815.38;;;27.17;49.56
34482;BME280;20720;48.886;9.388;2022-08-11T07:52:09;98824.09;;;27.27;49.55
34482;BME280;20720;48.886;9.388;2022-08-11T07:54:54;98817.28;;;27.94;46.90
34482;BME280;20720;48.886;9.388;2022-08-11T07:57:20;98826.38;;;28.52;46.75
34482;BME280;20720;48.886;9.388;2022-08-11T08:00:04;98816.94;;;29.35;45.13
34482;BME280;20720;48.886;9.388;2022-08-11T08:02:48;98811.81;;;29.64;44.34
34482;BME280;20720;48.886;9.388;2022-08-11T08:05:32;98819.66;;;29.96;42.65
34482;BME280;20720;48.886;9.388;2022-08-11T08:08:17;98821.00;;;29.24;45.08
34482;BME280;20720;48.886;9.388;2022-08-11T08:11:01;98811.97;;;28.93;44.60
34482;BME280;20720;48.886;9.388;2022-08-11T08:13:45;98813.75;;;28.97;44.46
34482;BME280;20720;48.886;9.388;2022-08-11T08:16:29;98812.31;;;29.35;44.69
34482;BME280;20720;48.886;9.388;2022-08-11T08:19:14;98813.63;;;29.68;43.16
34482;BME280;20720;48.886;9.388;2022-08-11T08:21:40;98810.63;;;28.68;43.78
34482;BME280;20720;48.886;9.388;2022-08-11T08:24:07;98817.50;;;29.10;42.90
34482;BME280;20720;48.886;9.388;2022-08-11T08:26:32;98813.25;;;29.31;42.93
34482;BME280;20720;48.886;9.388;2022-08-11T08:29:16;98814.94;;;29.49;41.58
34482;BME280;20720;48.886;9.388;2022-08-11T08:32:00;98817.81;;;29.52;41.18
34482;BME280;20720;48.886;9.388;2022-08-11T08:34:26;98825.50;;;28.16;43.42
34482;BME280;20720;48.886;9.388;2022-08-11T08:36:52;98807.34;;;29.29;42.26
34482;BME280;20720;48.886;9.388;2022-08-11T08:39:20;98816.28;;;29.91;40.39
34482;BME280;20720;48.886;9.388;2022-08-11T08:41:48;98813.69;;;29.55;41.13
34482;BME280;20720;48.886;9.388;2022-08-11T08:44:14;98822.44;;;29.74;40.80
34482;BME280;20720;48.886;9.388;2022-08-11T08:46:43;98810.09;;;28.03;43.31
34482;BME280;20720;48.886;9.388;2022-08-11T08:49:09;98819.00;;;28.94;41.49
34482;BME280;20720;48.886;9.388;2022-08-11T08:51:37;98817.03;;;29.30;40.77
34482;BME280;20720;48.886;9.388;2022-08-11T08:54:06;98817.44;;;29.98;39.92
34482;BME280;20720;48.886;9.388;2022-08-11T08:56:31;98821.41;;;30.40;38.49
34482;BME280;20720;48.886;9.388;2022-08-11T08:59:01;98808.81;;;29.35;41.03
34482;BME280;20720;48.886;9.388;2022-08-11T09:01:44;98815.16;;;29.61;39.51
34482;BME280;20720;48.886;9.388;2022-08-11T09:04:11;98817.00;;;30.52;37.80
34482;BME280;20720;48.886;9.388;2022-08-11T09:06:39;98820.16;;;30.37;37.68
34482;BME280;20720;48.886;9.388;2022-08-11T09:09:05;98818.56;;;30.53;37.23
34482;BME280;20720;48.886;9.388;2022-08-11T09:11:35;98819.31;;;30.28;37.14
34482;BME280;20720;48.886;9.388;2022-08-11T09:14:21;98822.69;;;29.95;37.61
34482;BME280;20720;48.886;9.388;2022-08-11T09:16:47;98818.22;;;30.29;36.52
34482;BME280;20720;48.886;9.388;2022-08-11T09:19:14;98823.41;;;31.25;36.24
34482;BME280;20720;48.886;9.388;2022-08-11T09:21:42;98811.66;;;30.30;37.35
34482;BME280;20720;48.886;9.388;2022-08-11T09:24:07;98800.78;;;30.87;36.83
34482;BME280;20720;48.886;9.388;2022-08-11T09:26:51;98805.47;;;32.33;33.61
34482;BME280;20720;48.886;9.388;2022-08-11T09:29:37;98806.59;;;30.37;37.06
34482;BME280;20720;48.886;9.388;2022-08-11T09:32:03;98809.00;;;31.59;36.41
34482;BME280;20720;48.886;9.388;2022-08-11T09:34:31;98808.31;;;29.86;37.49
34482;BME280;20720;48.886;9.388;2022-08-11T09:37:00;98804.47;;;31.71;35.47
34482;BME280;20720;48.886;9.388;2022-08-11T09:39:46;98807.53;;;32.36;34.52
34482;BME280;20720;48.886;9.388;2022-08-11T09:42:29;98806.25;;;32.84;33.67
34482;BME280;20720;48.886;9.388;2022-08-11T09:45:16;98796.53;;;33.03;32.57
34482;BME280;20720;48.886;9.388;2022-08-11T09:47:41;98813.63;;;30.81;36.31
34482;BME280;20720;48.886;9.388;2022-08-11T09:50:07;98804.06;;;31.35;36.17
34482;BME280;20720;48.886;9.388;2022-08-11T09:52:39;98799.78;;;32.26;35.56
34482;BME280;20720;48.886;9.388;2022-08-11T09:55:05;98796.31;;;31.71;34.92
34482;BME280;20720;48.886;9.388;2022-08-11T09:57:35;98795.06;;;31.60;34.62
34482;BME280;20720;48.886;9.388;2022-08-11T10:00:21;98788.69;;;32.02;33.79
34482;BME280;20720;48.886;9.388;2022-08-11T10:02:51;98804.19;;;29.88;37.37
34482;BME280;20720;48.886;9.388;2022-08-11T10:05:19;98787.66;;;32.86;33.08
34482;BME280;20720;48.886;9.388;2022-08-11T10:08:04;98793.56;;;33.29;31.23
34482;BME280;20720;48.886;9.388;2022-08-11T10:10:30;98784.75;;;33.44;31.70
34482;BME280;20720;48.886;9.388;2022-08-11T10:13:00;98782.16;;;35.08;30.60
34482;BME280;20720;48.886;9.388;2022-08-11T10:15:27;98782.66;;;33.29;31.43
34482;BME280;20720;48.886;9.388;2022-08-11T10:18:05;98793.84;;;32.54;33.08
34482;BME280;20720;48.886;9.388;2022-08-11T10:20:50;98789.13;;;31.67;33.23
34482;BME280;20720;48.886;9.388;2022-08-11T10:23:16;98784.13;;;31.14;33.68
34482;BME280;20720;48.886;9.388;2022-08-11T10:26:01;98764.31;;;33.50;30.28
34482;BME280;20720;48.886;9.388;2022-08-11T10:28:45;98770.31;;;34.00;29.67
34482;BME280;20720;48.886;9.388;2022-08-11T10:31:10;98770.25;;;34.61;29.88
34482;BME280;20720;48.886;9.388;2022-08-11T10:33:55;98765.16;;;33.63;30.89
34482;BME280;20720;48.886;9.388;2022-08-11T10:36:34;98765.97;;;33.99;30.38
34482;BME280;20720;48.886;9.388;2022-08-11T10:39:06;98756.88;;;32.23;31.54
34482;BME280;20720;48.886;9.388;2022-08-11T10:41:31;98757.72;;;31.40;32.76
34482;BME280;20720;48.886;9.388;2022-08-11T10:44:17;98762.56;;;34.14;29.42
34482;BME280;20720;48.886;9.388;2022-08-11T10:46:45;98759.47;;;32.70;30.51
34482;BME280;20720;48.886;9.388;2022-08-11T10:49:29;98758.22;;;33.20;31.25
34482;BME280;20720;48.886;9.388;2022-08-11T10:51:55;98750.06;;;34.26;29.08
34482;BME280;20720;48.886;9.388;2022-08-11T10:54:40;98745.06;;;34.15;29.24
34482;BME280;20720;48.886;9.388;2022-08-11T10:57:24;98733.69;;;35.05;28.74
34482;BME280;20720;48.886;9.388;2022-08-11T11:00:09;98744.41;;;33.05;29.89
34482;BME280;20720;48.886;9.388;2022-08-11T11:02:39;98738.56;;;33.15;29.47
34482;BME280;20720;48.886;9.388;2022-08-11T11:07:55;98733.25;;;34.11;28.28
34482;BME280;20720;48.886;9.388;2022-08-11T11:10:18;98723.63;;;34.30;28.37
34482;BME280;20720;48.886;9.388;2022-08-11T11:12:45;98738.97;;;33.05;29.65
34482;BME280;20720;48.886;9.388;2022-08-11T11:15:30;98720.88;;;35.09;27.69
34482;BME280;20720;48.886;9.388;2022-08-11T11:18:18;98737.59;;;32.99;29.86
34482;BME280;20720;48.886;9.388;2022-08-11T11:23:22;98717.66;;;36.13;27.42
34482;BME280;20720;48.886;9.388;2022-08-11T11:26:07;98727.16;;;33.46;30.16
34482;BME280;20720;48.886;9.388;2022-08-11T11:33:54;98713.78;;;34.65;27.60
34482;BME280;20720;48.886;9.388;2022-08-11T11:36:27;98708.22;;;34.89;28.29
34482;BME280;20720;48.886;9.388;2022-08-11T11:38:56;98705.66;;;35.08;27.04
34482;BME280;20720;48.886;9.388;2022-08-11T11:41:22;98702.25;;;35.42;26.67
34482;BME280;20720;48.886;9.388;2022-08-11T11:43:54;98694.72;;;35.08;27.24
34482;BME280;20720;48.886;9.388;2022-08-11T11:46:26;98689.88;;;35.17;27.15
34482;BME280;20720;48.886;9.388;2022-08-11T11:48:53;98694.44;;;36.07;27.09
34482;BME280;20720;48.886;9.388;2022-08-11T11:51:19;98682.34;;;36.08;27.72
34482;BME280;20720;48.886;9.388;2022-08-11T11:53:44;98682.03;;;38.58;24.19
34482;BME280;20720;48.886;9.388;2022-08-11T11:56:10;98691.09;;;39.28;22.98
34482;BME280;20720;48.886;9.388;2022-08-11T11:58:37;98679.69;;;38.56;24.11
34482;BME280;20720;48.886;9.388;2022-08-11T12:01:21;98680.66;;;34.27;27.51
34482;BME280;20720;48.886;9.388;2022-08-11T12:03:49;98671.28;;;35.69;26.11
34482;BME280;20720;48.886;9.388;2022-08-11T12:06:16;98680.66;;;36.19;25.92
34482;BME280;20720;48.886;9.388;2022-08-11T12:08:41;98676.28;;;35.21;26.62
34482;BME280;20720;48.886;9.388;2022-08-11T12:11:10;98674.03;;;34.52;27.37
34482;BME280;20720;48.886;9.388;2022-08-11T12:13:56;98662.44;;;35.14;26.32
34482;BME280;20720;48.886;9.388;2022-08-11T12:16:22;98676.66;;;36.51;25.63
34482;BME280;20720;48.886;9.388;2022-08-11T12:18:48;98672.31;;;36.88;24.97
34482;BME280;20720;48.886;9.388;2022-08-11T12:21:15;98668.63;;;35.26;25.73
34482;BME280;20720;48.886;9.388;2022-08-11T12:23:41;98660.97;;;35.47;25.90
34482;BME280;20720;48.886;9.388;2022-08-11T12:26:25;98664.47;;;36.14;24.95
34482;BME280;20720;48.886;9.388;2022-08-11T12:29:09;98665.50;;;33.65;27.62
34482;BME280;20720;48.886;9.388;2022-08-11T12:31:35;98666.47;;;33.24;26.96
34482;BME280;20720;48.886;9.388;2022-08-11T12:34:02;98662.75;;;33.89;26.30
34482;BME280;20720;48.886;9.388;2022-08-11T12:36:28;98653.13;;;34.87;26.13
34482;BME280;20720;48.886;9.388;2022-08-11T12:38:54;98656.81;;;34.79;26.19
34482;BME280;20720;48.886;9.388;2022-08-11T12:41:20;98649.41;;;36.39;25.27
34482;BME280;20720;48.886;9.388;2022-08-11T12:44:04;98653.00;;;34.68;25.57
34482;BME280;20720;48.886;9.388;2022-08-11T12:46:51;98642.16;;;35.30;25.28
34482;BME280;20720;48.886;9.388;2022-08-11T12:49:18;98642.59;;;34.58;25.89
34482;BME280;20720;48.886;9.388;2022-08-11T12:52:09;98638.53;;;35.26;25.40
34482;BME280;20720;48.886;9.388;2022-08-11T12:54:40;98638.19;;;38.06;23.06
34482;BME280;20720;48.886;9.388;2022-08-11T12:57:09;98637.38;;;35.74;24.26
34482;BME280;20720;48.886;9.388;2022-08-11T12:59:55;98628.47;;;36.12;23.63
34482;BME280;20720;48.886;9.388;2022-08-11T13:02:39;98630.56;;;38.22;22.08
34482;BME280;20720;48.886;9.388;2022-08-11T13:05:23;98622.63;;;35.78;24.04
34482;BME280;20720;48.886;9.388;2022-08-11T13:07:49;98620.06;;;35.85;24.25
34482;BME280;20720;48.886;9.388;2022-08-11T13:10:15;98614.88;;;37.18;23.84
34482;BME280;20720;48.886;9.388;2022-08-11T13:13:05;98605.63;;;33.20;25.70
34482;BME280;20720;48.886;9.388;2022-08-11T13:15:30;98616.97;;;36.82;23.92
34482;BME280;20720;48.886;9.388;2022-08-11T13:17:56;98611.94;;;36.43;23.90
34482;BME280;20720;48.886;9.388;2022-08-11T13:20:23;98614.78;;;36.69;23.42
34482;BME280;20720;48.886;9.388;2022-08-11T13:22:49;98611.31;;;36.53;23.20
34482;BME280;20720;48.886;9.388;2022-08-11T13:25:16;98612.31;;;38.70;21.72
34482;BME280;20720;48.886;9.388;2022-08-11T13:27:42;98606.16;;;36.48;23.01
34482;BME280;20720;48.886;9.388;2022-08-11T13:30:08;98598.16;;;36.81;22.19
34482;BME280;20720;48.886;9.388;2022-08-11T13:32:52;98606.34;;;35.66;24.08
34482;BME280;20720;48.886;9.388;2022-08-11T13:35:18;98599.72;;;36.21;23.92
34482;BME280;20720;48.886;9.388;2022-08-11T13:37:44;98609.22;;;37.07;22.57
34482;BME280;20720;48.886;9.388;2022-08-11T13:40:10;98603.28;;;36.41;23.11
34482;BME280;20720;48.886;9.388;2022-08-11T13:42:37;98597.63;;;36.53;22.97
34482;BME280;20720;48.886;9.388;2022-08-11T13:45:03;98589.28;;;34.64;24.48
34482;BME280;20720;48.886;9.388;2022-08-11T13:47:31;98595.88;;;37.54;21.90
34482;BME280;20720;48.886;9.388;2022-08-11T13:49:57;98588.28;;;39.03;21.00
34482;BME280;20720;48.886;9.388;2022-08-11T13:52:22;98584.69;;;39.46;21.03
34482;BME280;20720;48.886;9.388;2022-08-11T13:54:47;98590.78;;;37.53;21.66
34482;BME280;20720;48.886;9.388;2022-08-11T13:57:15;98580.28;;;38.51;21.08
34482;BME280;20720;48.886;9.388;2022-08-11T13:59:42;98568.28;;;38.00;21.42
34482;BME280;20720;48.886;9.388;2022-08-11T14:02:12;98575.63;;;36.30;22.21
34482;BME280;20720;48.886;9.388;2022-08-11T14:04:43;98571.91;;;39.14;20.87
34482;BME280;20720;48.886;9.388;2022-08-11T14:07:09;98564.69;;;36.91;22.10
34482;BME280;20720;48.886;9.388;2022-08-11T14:09:36;98568.81;;;34.42;24.57
34482;BME280;20720;48.886;9.388;2022-08-11T14:12:02;98561.50;;;34.89;24.41
34482;BME280;20720;48.886;9.388;2022-08-11T14:14:53;98559.13;;;35.69;23.73
34482;BME280;20720;48.886;9.388;2022-08-11T14:17:20;98549.97;;;34.96;24.26
34482;BME280;20720;48.886;9.388;2022-08-11T14:19:46;98543.56;;;34.92;25.16
34482;BME280;20720;48.886;9.388;2022-08-11T14:22:14;98557.13;;;37.86;22.15
34482;BME280;20720;48.886;9.388;2022-08-11T14:24:42;98546.56;;;38.54;21.39
34482;BME280;20720;48.886;9.388;2022-08-11T14:27:10;98545.59;;;39.78;20.76
34482;BME280;20720;48.886;9.388;2022-08-11T14:29:36;98550.13;;;37.32;21.67
34482;BME280;20720;48.886;9.388;2022-08-11T14:32:04;98544.47;;;36.99;22.21
34482;BME280;20720;48.886;9.388;2022-08-11T14:34:30;98543.59;;;35.08;24.48
34482;BME280;20720;48.886;9.388;2022-08-11T14:36:59;98547.16;;;35.77;23.72
34482;BME280;20720;48.886;9.388;2022-08-11T14:39:30;98539.50;;;36.21;23.42
34482;BME280;20720;48.886;9.388;2022-08-11T14:41:59;98539.97;;;37.14;22.73
34482;BME280;20720;48.886;9.388;2022-08-11T14:44:45;98536.38;;;34.84;24.10
34482;BME280;20720;48.886;9.388;2022-08-11T14:47:47;98539.31;;;35.41;24.48
34482;BME280;20720;48.886;9.388;2022-08-11T14:50:15;98529.56;;;33.52;25.19
34482;BME280;20720;48.886;9.388;2022-08-11T14:52:47;98525.59;;;36.30;23.42
34482;BME280;20720;48.886;9.388;2022-08-11T14:55:13;98520.91;;;37.21;22.63
34482;BME280;20720;48.886;9.388;2022-08-11T14:57:57;98523.44;;;38.58;21.42
34482;BME280;20720;48.886;9.388;2022-08-11T15:00:23;98516.94;;;35.89;23.13
34482;BME280;20720;48.886;9.388;2022-08-11T15:02:49;98518.50;;;35.52;23.51
34482;BME280;20720;48.886;9.388;2022-08-11T15:05:34;98513.91;;;36.33;22.96
34482;BME280;20720;48.886;9.388;2022-08-11T15:08:00;98516.19;;;36.31;22.72
34482;BME280;20720;48.886;9.388;2022-08-11T15:10:26;98511.41;;;35.67;23.09
34482;BME280;20720;48.886;9.388;2022-08-11T15:12:51;98511.84;;;35.19;23.79
34482;BME280;20720;48.886;9.388;2022-08-11T15:15:17;98515.34;;;37.17;23.46
34482;BME280;20720;48.886;9.388;2022-08-11T15:18:02;98507.31;;;36.15;22.97
34482;BME280;20720;48.886;9.388;2022-08-11T15:20:29;98503.66;;;36.94;22.71
34482;BME280;20720;48.886;9.388;2022-08-11T15:23:13;98501.75;;;35.38;24.50
34482;BME280;20720;48.886;9.388;2022-08-11T15:25:58;98507.13;;;36.91;22.85
34482;BME280;20720;48.886;9.388;2022-08-11T15:28:25;98501.44;;;37.29;23.38
34482;BME280;20720;48.886;9.388;2022-08-11T15:31:10;98493.16;;;37.82;22.40
34482;BME280;20720;48.886;9.388;2022-08-11T15:33:56;98497.09;;;34.30;24.98
34482;BME280;20720;48.886;9.388;2022-08-11T15:36:40;98490.31;;;36.28;23.31
34482;BME280;20720;48.886;9.388;2022-08-11T15:39:27;98494.16;;;37.14;22.74
34482;BME280;20720;48.886;9.388;2022-08-11T15:41:59;98490.94;;;35.80;23.65
34482;BME280;20720;48.886;9.388;2022-08-11T15:45:02;98490.09;;;36.14;23.12
34482;BME280;20720;48.886;9.388;2022-08-11T15:47:51;98480.75;;;35.42;23.78
34482;BME280;20720;48.886;9.388;2022-08-11T15:50:21;98493.19;;;35.74;23.74
34482;BME280;20720;48.886;9.388;2022-08-11T15:52:52;98473.44;;;35.12;24.18
34482;BME280;20720;48.886;9.388;2022-08-11T15:55:20;98481.22;;;33.00;27.03
34482;BME280;20720;48.886;9.388;2022-08-11T15:57:48;98483.00;;;32.84;26.65
34482;BME280;20720;48.886;9.388;2022-08-11T16:00:33;98476.09;;;32.87;26.20
34482;BME280;20720;48.886;9.388;2022-08-11T16:03:18;98478.47;;;32.19;27.76
34482;BME280;20720;48.886;9.388;2022-08-11T16:06:06;98480.94;;;32.00;27.84
34482;BME280;20720;48.886;9.388;2022-08-11T16:08:31;98471.75;;;31.84;27.26
34482;BME280;20720;48.886;9.388;2022-08-11T16:10:58;98470.09;;;32.24;27.12
34482;BME280;20720;48.886;9.388;2022-08-11T16:13:24;98460.91;;;33.10;26.78